Tiempo atmosférico en la estación meteorológica de Alpedrete, Madrid (924 m.)



Fecha
DESCASC
Temp. máxima en grados centígrados (hora)
DESCASC
Temp. mínima en grados centígrados (hora)
DESCASC
Temp. media en grados centígrados
DESCASC
Racha de viento máxima en m/sg (hora)
DESCASC
Velocidad máxima media en intervalos de 10 minutos(hora)
DESCASC
Precipitaciones diarias en mm
DESCASC
Precipitaciones de 00:00 a 06:00 en mm
DESCASC
Precipitaciones de 06:00 a 12:00 en mm
DESCASC
Precipitaciones de 12:00 a 18:00 en mm
DESCASC
Precipitaciones de 18:00 a 24:00 en mm
DESCASC
04-03-2021 15.2 (15:50) 3.9 (05:50) 9.5 3.61 (14:50) 1.67 (15:00) 0 0 0 0 0
03-03-2021 14.3 (15:10) 5 (08:50) 9.7 4.44 (15:40) 1.67 (15:40) 0 0 0 0 0
02-03-2021 13.3 (15:50) 6.5 (08:20) 9.9 4.72 (01:40) 1.67 (00:10) 0 0 0 0 0
01-03-2021 7.4 (00:00) 5.5 (11:50) 6.5 6.11 (11:50) 3.61 (11:50) 2.4 0 0.2 1.4 0.8
28-02-2021 12.8 (15:50) 2.1 (00:00) 7.5 9.17 (00:30) 5.28 (00:30) 0 0 0 0 0
27-02-2021 20.9 (17:20) 4.5 (00:00) 12.7 8.33 (23:50) 4.72 (23:59) 0 0 0 0 0
26-02-2021 16.4 (16:00) 4.7 (00:00) 10.5 4.72 (11:40) 2.78 (12:30) 0 0 0 0 0
25-02-2021 12.1 (15:10) 5.5 (00:00) 8.8 5.56 (02:20) 3.06 (01:50) 0 0 0 0 0
24-02-2021 11.9 (17:10) 4.7 (00:00) 8.3 6.94 (12:10) 3.61 (17:00) 0 0 0 0 0
23-02-2021 13 (14:30) -0.1 (00:00) 6.4 5.28 (10:20) 3.33 (10:30) 0 0 0 0 0
22-02-2021 8.9 (17:40) 1.6 (00:00) 5.2 17.78 (00:10) 8.61 (00:10) 0.2 0.2 0 0 0
21-02-2021 10.4 (00:00) 3.3 (00:00) 6.8 16.39 (23:00) 7.5 (23:50) 27.2 0 0 2 25.2
20-02-2021 16.3 (16:30) 4.8 (00:00) 10.5 8.89 (15:50) 4.17 (16:40) 0 0 0 0 0
19-02-2021 15.9 (15:10) 2.1 (00:00) 9 7.22 (15:50) 3.33 (16:30) 0 0 0 0 0
18-02-2021 15.3 (15:00) 3.2 (00:00) 9.3 8.89 (16:50) 4.17 (15:50) 0 0 0 0 0
17-02-2021 16.4 (15:20) 4.5 (00:00) 10.4 5 (16:00) 1.94 (16:00) 0 0 0 0 0
16-02-2021 15 (14:00) 2.3 (00:00) 8.6 5 (14:20) 2.78 (14:30) 0 0 0 0 0
15-02-2021 13.9 (15:40) 3 (00:00) 8.4 3.89 (16:20) 1.94 (16:00) 0 0 0 0 0
14-02-2021 15.7 (15:40) 2.1 (00:00) 8.9 4.72 (12:30) 1.94 (12:30) 0 0 0 0 0
13-02-2021 13.6 (16:30) 5.3 (00:00) 9.5 12.78 (13:40) 7.22 (13:20) 0 0 0 0 0
12-02-2021 10.3 (14:10) 7.5 (00:00) 8.9 15.83 (11:00) 8.33 (11:00) 7.8 4.4 3.4 0 0
11-02-2021 12.2 (10:40) 5.2 (00:00) 8.7 9.72 (00:40) 4.72 (00:50) 0 0 0 0 0
10-02-2021 12.5 (16:40) 4.1 (00:00) 8.3 15.83 (06:40) 9.17 (08:00) 2.8 2.4 0.4 0 0
09-02-2021 7.3 (17:20) 3.5 (00:00) 5.4 11.39 (11:30) 5.56 (14:20) 16.2 2.8 9 4.2 0.2
08-02-2021 9.2 (15:20) 3.7 (00:00) 6.4 11.67 (19:30) 6.11 (14:00) 10.2 7.6 0.8 1 0.8
07-02-2021 9.8 (14:40) 2.1 (00:00) 6 10.28 (13:30) 6.39 (12:50) 1.2 0 0 0 1.2
06-02-2021 11.9 (14:40) 4.9 (00:00) 8.4 8.06 (22:50) 4.72 (22:50) 14 4.4 3.2 6.4 0
05-02-2021 14.6 (16:10) 5.6 (00:00) 10.1 12.78 (21:50) 6.11 (21:50) 11 1.4 0 0 9.6
04-02-2021 11.1 (13:20) 7.2 (00:00) 9.2 7.22 (12:30) 3.61 (12:30) 0.4 0.2 0 0.2 0

Gráficas

Temp. máximas Temp. mínimas Temp. medias Precipitaciones Rachas de viento máximas Velocidades máximas media en intervalos de 10 minutos

Datos horarios

Fecha y hora oficial Temperatura (ºC) Velocidad del viento (km/h) Dirección del viento Racha (km/h) Dirección de racha Precipitación (mm) Presión (hPa) Tendencia (hPa) Humedad (%)
2021-03-05 23:00:00 9.8 13 Este 20 Este 0 -- -- 70
2021-03-05 22:00:00 7.8 2 Sur 7 Sudeste 0 -- -- 82
2021-03-05 21:00:00 8.2 0 Calma 10 Noroeste 0 -- -- 80
2021-03-05 20:00:00 9 4 Noroeste 7 Noroeste 0 -- -- 76
2021-03-05 19:00:00 11.3 0 Calma 12 Sudeste 0 -- -- 66
2021-03-05 18:00:00 12.7 6 Sudeste 23 Este 0 -- -- 59
2021-03-05 17:00:00 14 8 Este 23 Este 0 -- -- 55
2021-03-05 16:00:00 13.7 12 Este 19 Este 0 -- -- 58
2021-03-05 15:00:00 14.1 7 Este 15 Este 0 -- -- 55
2021-03-05 14:00:00 13.5 7 Sudeste 18 Sudeste 0 -- -- 59
2021-03-05 13:00:00 13.5 6 Sur 12 Sur 0 -- -- 61
2021-03-05 12:00:00 12.2 4 Sur 12 Sur 0 -- -- 62
2021-03-05 11:00:00 11.8 2 Sur 6 Noroeste 0 -- -- 63
2021-03-05 10:00:00 9.3 0 Calma 4 Oeste 0 -- -- 74
2021-03-05 09:00:00 6.8 0 Calma 3 Sudoeste 0 -- -- 88
2021-03-05 08:00:00 5.6 0 Calma 5 Sudeste 0 -- -- 93
2021-03-05 07:00:00 5.1 0 Calma 5 Sudeste 0 -- -- 93
2021-03-05 06:00:00 5.1 0 Calma 5 Sudeste 0 -- -- 93
2021-03-05 05:00:00 5.2 0 Calma 5 Norte 0 -- -- 90
2021-03-05 04:00:00 6.6 2 Sudeste 6 Sur 0 -- -- 89
2021-03-05 03:00:00 6.5 0 Calma 5 Norte 0 -- -- 95
2021-03-05 02:00:00 6.2 0 Calma 5 Este 0 -- -- 94
2021-03-05 01:00:00 6.7 0 Calma 4 Este 0 -- -- 93
2021-03-05 00:00:00 6.6 0 Calma 8 Noroeste 0 -- -- 92
2021-03-04 23:00:00 7.2 0 Calma 6 Noroeste 0 -- -- 90
2021-03-04 22:00:00 6.9 0 Calma 5 Oeste 0 -- -- 91
2021-03-04 21:00:00 8.1 0 Calma 5 Norte 0 -- -- 87
2021-03-04 20:00:00 9.1 2 Noroeste 5 Sudoeste 0 -- -- 82
2021-03-04 19:00:00 11 2 Sudoeste 9 Sur 0 -- -- 74
2021-03-04 18:00:00 13 3 Sur 12 Sudeste 0 -- -- 68
2021-03-04 17:00:00 15.1 3 Sudoeste 13 Sudoeste 0 -- -- 62
2021-03-04 16:00:00 15.1 4 Sur 13 Sur 0 -- -- 63
2021-03-04 15:00:00 14.3 6 Sur 13 Sur 0 -- -- 65
2021-03-04 14:00:00 13.6 5 Sur 10 Sudeste 0 -- -- 67
2021-03-04 13:00:00 14 0 Calma 10 Norte 0 -- -- 64
2021-03-04 12:00:00 11.3 2 Sudoeste 8 Sudeste 0 -- -- 74
2021-03-04 11:00:00 9.3 0 Calma 7 Sur 0 -- -- 81
2021-03-04 10:00:00 7.6 2 Sur 5 Sudeste 0 -- -- 89
2021-03-04 09:00:00 6.2 3 Sudeste 5 Sudeste 0 -- -- 94
2021-03-04 08:00:00 5 2 Norte 4 Norte 0 -- -- 97
2021-03-04 07:00:00 4.1 0 Calma 5 Norte 0 -- -- 96
2021-03-04 06:00:00 3.9 0 Calma 6 Norte 0 -- -- 96
2021-03-04 05:00:00 4.3 0 Calma 5 Norte 0 -- -- 95
2021-03-04 04:00:00 4.8 0 Calma 6 Nordeste 0 -- -- 94
2021-03-04 03:00:00 4.5 4 Norte 6 Norte 0 -- -- 95
2021-03-04 02:00:00 5.3 0 Calma 5 Norte 0 -- -- 95
2021-03-04 01:00:00 5.7 0 Calma 4 Norte 0 -- -- 95
2021-03-04 00:00:00 5.4 0 Calma 4 Norte 0 -- -- 94
2021-03-03 23:00:00 5.9 3 Noroeste 5 Norte 0 -- -- 91
2021-03-03 22:00:00 7.1 0 Calma 7 Noroeste 0 -- -- 89
2021-03-03 21:00:00 7.9 2 Noroeste 5 Noroeste 0 -- -- 86
2021-03-03 20:00:00 9.4 0 Calma 5 Norte 0 -- -- 81
2021-03-03 19:00:00 12 0 Calma 5 Sudoeste 0 -- -- 70
2021-03-03 18:00:00 12.9 2 Oeste 8 Sur 0 -- -- 66
2021-03-03 17:00:00 13.3 2 Sudoeste 9 Sudoeste 0 -- -- 64
2021-03-03 16:00:00 13.2 3 Sur 16 Sudeste 0 -- -- 64
2021-03-03 15:00:00 14.1 3 Sudoeste 11 Sur 0 -- -- 62
2021-03-03 14:00:00 13.6 2 Oeste 9 Oeste 0 -- -- 60
2021-03-03 13:00:00 11.8 4 Noroeste 9 Noroeste 0 -- -- 69
2021-03-03 12:00:00 9.8 2 Sur 7 Sudeste 0 -- -- 79
2021-03-03 11:00:00 7.3 0 Calma 5 Sudeste 0 -- -- 89
2021-03-03 10:00:00 6 0 Calma 3 Este 0 -- -- 94
2021-03-03 09:00:00 5 0 Calma 5 Sudeste 0 -- -- 93
2021-03-03 08:00:00 5.5 0 Calma 5 Noroeste 0 -- -- 93
2021-03-03 07:00:00 5.9 0 Calma 6 Este 0 -- -- 91
2021-03-03 06:00:00 6.9 3 Noroeste 7 Noroeste 0 -- -- 87
2021-03-03 05:00:00 7.5 3 Norte 5 Norte 0 -- -- 86
2021-03-03 04:00:00 7.6 0 Calma 4 Este 0 -- -- 86
2021-03-03 03:00:00 7.6 0 Calma 6 Norte 0 -- -- 84
2021-03-03 02:00:00 7.7 3 Norte 6 Noroeste 0 -- -- 85
2021-03-03 01:00:00 8.2 0 Calma 4 Oeste 0 -- -- 80
2021-03-03 00:00:00 8.5 0 Calma 6 Norte 0 -- -- 78
2021-03-02 23:00:00 8.5 0 Calma 6 Noroeste 0 -- -- 77
2021-03-02 22:00:00 8.7 2 Oeste 6 Sudeste 0 -- -- 76
2021-03-02 21:00:00 9.1 3 Nordeste 10 Nordeste 0 -- -- 71
2021-03-02 20:00:00 9.5 6 Este 10 Este 0 -- -- 70
2021-03-02 19:00:00 10.1 5 Este 9 Este 0 -- -- 67
2021-03-02 18:00:00 10.6 4 Este 10 Este 0 -- -- 67
2021-03-02 17:00:00 11 4 Este 10 Este 0 -- -- 67
2021-03-02 16:00:00 12.2 6 Este 14 Este 0 -- -- 63
2021-03-02 15:00:00 11.4 0 Calma 6 Norte 0 -- -- 66
2021-03-02 14:00:00 10.4 0 Calma 9 Este 0 -- -- 70
2021-03-02 13:00:00 8.9 4 Este 11 Sudeste 0 -- -- 77
2021-03-02 12:00:00 8.3 5 Este 9 Este 0 -- -- 81
2021-03-02 11:00:00 8.4 0 Calma 5 Noroeste 0 -- -- 80
2021-03-02 10:00:00 9 2 Oeste 5 Sudeste 0 -- -- 79
2021-03-02 09:00:00 6.7 2 Noroeste 4 Este 0 -- -- 92
2021-03-02 08:00:00 6.6 2 Este 3 Sudeste 0 -- -- 90
2021-03-02 07:00:00 6.6 0 Calma 5 Este 0 -- -- 91
2021-03-02 06:00:00 6.7 0 Calma 8 Este 0 -- -- 90
2021-03-02 05:00:00 6.7 3 Este 10 Nordeste 0 -- -- 90
2021-03-02 04:00:00 6.8 4 Este 8 Sudeste 0 -- -- 90
2021-03-02 03:00:00 6.8 4 Sudeste 14 Este 0 -- -- 91
2021-03-02 02:00:00 6.8 5 Este 17 Este 0 -- -- 90
2021-03-02 01:00:00 6.8 3 Este 12 Este 0 -- -- 91
2021-03-02 00:00:00 6.9 4 Sudeste 18 Sudeste 0 -- -- 91
2021-03-01 23:00:00 7.1 6 Este 14 Este 0 -- -- 89
2021-03-01 22:00:00 7 7 Este 16 Este 0 -- -- 90
2021-03-01 21:00:00 6.8 10 Este 19 Este 0 -- -- 92
2021-03-01 20:00:00 6.7 12 Este 19 Nordeste 0.4 -- -- 92
2021-03-01 19:00:00 6.3 8 Este 20 Este 0.4 -- -- 95
2021-03-01 18:00:00 6.3 10 Este 18 Este 0.6 -- -- 94
2021-03-01 17:00:00 6.3 11 Este 21 Este 0.2 -- -- 93
2021-03-01 16:00:00 6.6 10 Este 19 Este 0 -- -- 89
2021-03-01 15:00:00 6.4 9 Este 18 Este 0 -- -- 89
2021-03-01 14:00:00 5.9 8 Este 21 Nordeste 0 -- -- 91
2021-03-01 13:00:00 5.8 9 Este 21 Este 0.6 -- -- 90
2021-03-01 12:00:00 5.5 12 Este 22 Este 0.2 -- -- 92
2021-03-01 11:00:00 6.1 10 Este 20 Este 0 -- -- 84
2021-03-01 10:00:00 6.7 8 Este 14 Nordeste 0 -- -- 77
2021-03-01 09:00:00 6.5 5 Este 12 Este 0 -- -- 77
2021-03-01 08:00:00 6.3 7 Este 13 Este 0 -- -- 77
2021-03-01 07:00:00 6.2 6 Este 15 Este 0 -- -- 78
2021-03-01 06:00:00 6.1 9 Este 15 Este 0 -- -- 77
2021-03-01 05:00:00 6.1 7 Este 20 Sudeste 0 -- -- 77
2021-03-01 04:00:00 6 3 Este 18 Este 0 -- -- 79
2021-03-01 03:00:00 6.3 6 Este 21 Sudeste 0 -- -- 76
2021-03-01 02:00:00 6.4 8 Este 14 Este 0 -- -- 76
2021-03-01 01:00:00 6.9 7 Sudeste 19 Sudeste 0 -- -- 80
2021-03-01 00:00:00 7.4 8 Sudeste 21 Sudeste 0 -- -- 78
2021-02-28 23:00:00 7.8 6 Sudeste 27 Sudeste 0 -- -- 75
2021-02-28 22:00:00 8.2 9 Sudeste 25 Sudeste 0 -- -- 72
2021-02-28 21:00:00 8.7 12 Sudeste 30 Sudeste 0 -- -- 69
2021-02-28 20:00:00 9.5 15 Sudeste 28 Sudeste 0 -- -- 64
2021-02-28 19:00:00 10.4 11 Sudeste 24 Sudeste 0 -- -- 61
2021-02-28 18:00:00 10.6 7 Este 17 Nordeste 0 -- -- 63
2021-02-28 17:00:00 11.3 6 Este 13 Este 0 -- -- 59
2021-02-28 16:00:00 11.9 5 Este 14 Este 0 -- -- 55
2021-02-28 15:00:00 10.6 3 Sudeste 15 Este 0 -- -- 59
2021-02-28 14:00:00 10 8 Este 16 Este 0 -- -- 59
2021-02-28 13:00:00 8.5 8 Este 14 Este 0 -- -- 63
2021-02-28 12:00:00 8.5 3 Nordeste 9 Este 0 -- -- 64
2021-02-28 11:00:00 7.8 3 Sudeste 6 Sudeste 0 -- -- 66
2021-02-28 10:00:00 8 3 Oeste 8 Oeste 0 -- -- 67
2021-02-28 09:00:00 5.7 2 Norte 15 Sudeste 0 -- -- 69
2021-02-28 08:00:00 2.1 0 Calma 3 Sur 0 -- -- 80
2021-02-28 07:00:00 2.2 2 Noroeste 5 Norte 0 -- -- 80
2021-02-28 06:00:00 3.3 3 Noroeste 7 Norte 0 -- -- 73
2021-02-28 05:00:00 4.1 0 Calma 6 Este 0 -- -- 72
2021-02-28 04:00:00 6.2 2 Noroeste 14 Noroeste 0 -- -- 60
2021-02-28 03:00:00 6.9 4 Oeste 13 Norte 0 -- -- 60
2021-02-28 02:00:00 8.4 2 Sudeste 24 Este 0 -- -- 51
2021-02-28 01:00:00 10.1 12 Este 33 Este 0 -- -- 48
2021-02-28 00:00:00 10.3 17 Este 30 Este 0 -- -- 57
2021-02-27 23:00:00 7.6 0 Calma 6 Norte 0 -- -- 68
2021-02-27 22:00:00 8.9 0 Calma 9 Norte 0 -- -- 69
2021-02-27 21:00:00 10.8 4 Norte 12 Noroeste 0 -- -- 60
2021-02-27 20:00:00 12.7 7 Noroeste 14 Noroeste 0 -- -- 55
2021-02-27 19:00:00 14 8 Noroeste 20 Noroeste 0 -- -- 55
2021-02-27 18:00:00 16.8 7 Noroeste 16 Noroeste 0 -- -- 41
2021-02-27 17:00:00 20.4 3 Sur 10 Sudeste 0 -- -- 26
2021-02-27 16:00:00 19.7 3 Sudoeste 13 Sudoeste 0 -- -- 26
2021-02-27 15:00:00 19.7 4 Oeste 15 Este 0 -- -- 29
2021-02-27 14:00:00 18.6 6 Este 18 Sur 0 -- -- 30
2021-02-27 13:00:00 18.5 5 Sur 15 Sudoeste 0 -- -- 32
2021-02-27 12:00:00 17 6 Sur 13 Sur 0 -- -- 41
2021-02-27 11:00:00 16.7 3 Sur 6 Sudeste 0 -- -- 36
2021-02-27 10:00:00 13.7 0 Calma 2 Oeste 0 -- -- 50
2021-02-27 09:00:00 8.1 0 Calma 4 Noroeste 0 -- -- 64
2021-02-27 08:00:00 4.8 0 Calma 4 Norte 0 -- -- 74
2021-02-27 07:00:00 4.7 0 Calma 3 Noroeste 0 -- -- 76
2021-02-27 06:00:00 4.7 2 Este 9 Norte 0 -- -- 76
2021-02-27 05:00:00 6.1 2 Noroeste 12 Noroeste 0 -- -- 69
2021-02-27 04:00:00 5.9 4 Norte 10 Norte 0 -- -- 73
2021-02-27 03:00:00 6.4 3 Noroeste 8 Oeste 0 -- -- 72
2021-02-27 02:00:00 6.3 3 Noroeste 7 Norte 0 -- -- 72
2021-02-27 01:00:00 7.3 2 Norte 10 Nordeste 0 -- -- 69
2021-02-27 00:00:00 6.4 0 Calma 6 Norte 0 -- -- 75
2021-02-26 23:00:00 7.6 0 Calma 6 Norte 0 -- -- 74
2021-02-26 22:00:00 8.3 4 Norte 6 Norte 0 -- -- 72
2021-02-26 21:00:00 8.7 2 Norte 7 Noroeste 0 -- -- 70
2021-02-26 20:00:00 10.1 4 Noroeste 7 Norte 0 -- -- 68
2021-02-26 19:00:00 12.5 0 Calma 10 Este 0 -- -- 59
2021-02-26 18:00:00 14.4 6 Este 13 Este 0 -- -- 52
2021-02-26 17:00:00 14.6 6 Este 14 Este 0 -- -- 49
2021-02-26 16:00:00 16.4 5 Nordeste 14 Nordeste 0 -- -- 45
2021-02-26 15:00:00 14.9 8 Este 16 Nordeste 0 -- -- 48
2021-02-26 14:00:00 14.4 6 Este 15 Este 0 -- -- 50
2021-02-26 13:00:00 12.7 9 Este 17 Este 0 -- -- 55
2021-02-26 12:00:00 12.5 9 Este 17 Nordeste 0 -- -- 57
2021-02-26 11:00:00 10.4 8 Sudeste 15 Este 0 -- -- 64
2021-02-26 10:00:00 9.4 0 Calma 5 Sur 0 -- -- 75
2021-02-26 09:00:00 8.2 2 Este 8 Este 0 -- -- 77
2021-02-26 08:00:00 4.8 0 Calma 4 Este 0 -- -- 88
2021-02-26 07:00:00 5.5 0 Calma 4 Nordeste 0 -- -- 88
2021-02-26 06:00:00 6 0 Calma 6 Noroeste 0 -- -- 85
2021-02-26 05:00:00 6 4 Norte 7 Noroeste 0 -- -- 85
2021-02-26 04:00:00 7.5 0 Calma 6 Este 0 -- -- 77
2021-02-26 03:00:00 7 3 Este 6 Este 0 -- -- 80
2021-02-26 02:00:00 8 2 Sudoeste 9 Este 0 -- -- 75
2021-02-26 01:00:00 9.5 4 Este 13 Este 0 -- -- 69
2021-02-26 00:00:00 9.9 6 Este 12 Este 0 -- -- 67
2021-02-25 23:00:00 8.1 2 Norte 6 Norte 0 -- -- 78
2021-02-25 22:00:00 8.5 2 Noroeste 6 Este 0 -- -- 76
2021-02-25 21:00:00 9.2 3 Nordeste 10 Este 0 -- -- 72
2021-02-25 20:00:00 9.4 4 Norte 9 Nordeste 0 -- -- 72
2021-02-25 19:00:00 9.8 3 Este 15 Nordeste 0 -- -- 71
2021-02-25 18:00:00 10.4 5 Este 17 Este 0 -- -- 69
2021-02-25 17:00:00 11.1 5 Este 16 Este 0 -- -- 66
2021-02-25 16:00:00 11 9 Este 15 Este 0 -- -- 66
2021-02-25 15:00:00 11.6 6 Este 16 Este 0 -- -- 61
2021-02-25 14:00:00 11 8 Este 14 Este 0 -- -- 61
2021-02-25 13:00:00 10.5 5 Este 12 Nordeste 0 -- -- 65
2021-02-25 12:00:00 9.1 4 Sudeste 13 Este 0 -- -- 69
2021-02-25 11:00:00 7.9 5 Este 14 Este 0 -- -- 78
2021-02-25 10:00:00 6.6 8 Este 15 Este 0 -- -- 87
2021-02-25 09:00:00 5.9 8 Este 15 Este 0 -- -- 88
2021-02-25 08:00:00 5.6 6 Este 19 Este 0 -- -- 89
2021-02-25 07:00:00 5.8 6 Este 17 Este 0 -- -- 89
2021-02-25 06:00:00 5.5 3 Sudeste 14 Este 0 -- -- 89
2021-02-25 05:00:00 6.1 9 Este 14 Este 0 -- -- 87
2021-02-25 04:00:00 6.5 6 Este 12 Sudeste 0 -- -- 85
2021-02-25 03:00:00 7 7 Este 20 Este 0 -- -- 84
2021-02-25 02:00:00 7.7 10 Este 17 Este 0 -- -- 82
2021-02-25 01:00:00 7.9 9 Este 15 Este 0 -- -- 83
2021-02-25 00:00:00 8.8 10 Este 16 Este 0 -- -- 80
2021-02-24 23:00:00 9.1 8 Este 17 Este 0 -- -- 80
2021-02-24 22:00:00 9.5 9 Este 19 Este 0 -- -- 79
2021-02-24 21:00:00 9.5 0 Calma 7 Este 0 -- -- 76
2021-02-24 20:00:00 9.7 5 Este 13 Este 0 -- -- 75
2021-02-24 19:00:00 10.7 6 Este 19 Sudeste 0 -- -- 73
2021-02-24 18:00:00 11.1 8 Este 22 Sudeste 0 -- -- 75
2021-02-24 17:00:00 11.6 13 Sudeste 24 Este 0 -- -- 71
2021-02-24 16:00:00 11.4 12 Sudeste 24 Sudeste 0 -- -- 72
2021-02-24 15:00:00 10.8 6 Sudeste 20 Este 0 -- -- 72
2021-02-24 14:00:00 9.5 12 Este 21 Este 0 -- -- 76
2021-02-24 13:00:00 9.4 10 Sudeste 25 Sudeste 0 -- -- 75
2021-02-24 12:00:00 9.4 9 Sudeste 21 Sudeste 0 -- -- 72
2021-02-24 11:00:00 8.7 9 Sudeste 17 Este 0 -- -- 76
2021-02-24 10:00:00 8 4 Sudeste 13 Este 0 -- -- 73
2021-02-24 09:00:00 6.4 6 Este 15 Este 0 -- -- 80
2021-02-24 08:00:00 5.1 5 Este 13 Este 0 -- -- 85
2021-02-24 07:00:00 5.8 8 Este 15 Este 0 -- -- 81
2021-02-24 06:00:00 4.8 4 Este 13 Sudeste 0 -- -- 87
2021-02-24 05:00:00 5.7 5 Sudeste 18 Sudeste 0 -- -- 84
2021-02-24 04:00:00 5.9 5 Sudeste 19 Este 0 -- -- 85
2021-02-24 03:00:00 6.7 7 Este 15 Este 0 -- -- 79
2021-02-24 02:00:00 7.4 10 Este 17 Este 0 -- -- 76
2021-02-24 01:00:00 7 10 Este 15 Este 0 -- -- 78
2021-02-24 00:00:00 6.7 6 Este 12 Este 0 -- -- 78
2021-02-23 23:00:00 6.3 2 Este 8 Este 0 -- -- 80
2021-02-23 22:00:00 7 6 Este 9 Este 0 -- -- 76
2021-02-23 21:00:00 7.8 5 Este 10 Este 0 -- -- 71
2021-02-23 20:00:00 7.9 0 Calma 9 Este 0 -- -- 71
2021-02-23 19:00:00 9.1 4 Sudeste 14 Sudeste 0 -- -- 65
2021-02-23 18:00:00 9.9 5 Sur 16 Sudeste 0 -- -- 61
2021-02-23 17:00:00 11.6 8 Sur 18 Sudeste 0 -- -- 55
2021-02-23 16:00:00 10.9 10 Sur 19 Sur 0 -- -- 56
2021-02-23 15:00:00 12.1 7 Sur 17 Sur 0 -- -- 54
2021-02-23 14:00:00 12.5 6 Sudeste 19 Sur 0 -- -- 52
2021-02-23 13:00:00 10.7 7 Sur 17 Este 0 -- -- 57
2021-02-23 12:00:00 8 10 Este 18 Este 0 -- -- 69
2021-02-23 11:00:00 8.5 9 Este 19 Este 0 -- -- 69
2021-02-23 10:00:00 6.8 10 Este 17 Este 0 -- -- 73
2021-02-23 09:00:00 3.8 3 Sudeste 6 Norte 0 -- -- 80
2021-02-23 08:00:00 0.1 0 Calma 5 Norte 0 -- -- 94
2021-02-23 07:00:00 -0.1 0 Calma 4 Norte 0 -- -- 95
2021-02-23 06:00:00 0.5 2 Este 5 Norte 0 -- -- 94
2021-02-23 05:00:00 0.8 2 Oeste 6 Noroeste 0 -- -- 92
2021-02-23 04:00:00 0.6 2 Noroeste 5 Norte 0 -- -- 91
2021-02-23 03:00:00 0.8 3 Norte 5 Norte 0 -- -- 93
2021-02-23 02:00:00 1 2 Noroeste 8 Norte 0 -- -- 93
2021-02-23 01:00:00 0.9 2 Nordeste 5 Nordeste 0 -- -- 92
2021-02-23 00:00:00 1.6 0 Calma 4 Norte 0 -- -- 91
2021-02-22 23:00:00 2.1 2 Nordeste 5 Norte 0 -- -- 88
2021-02-22 22:00:00 3.3 0 Calma 4 Norte 0 -- -- 82
2021-02-22 21:00:00 4 5 Noroeste 9 Norte 0 -- -- 75
2021-02-22 20:00:00 5.4 3 Norte 17 Noroeste 0 -- -- 68
2021-02-22 19:00:00 6.9 11 Noroeste 23 Noroeste 0 -- -- 62
2021-02-22 18:00:00 8.2 18 Noroeste 30 Oeste 0 -- -- 61
2021-02-22 17:00:00 8.3 14 Noroeste 26 Oeste 0 -- -- 60
2021-02-22 16:00:00 7.9 19 Noroeste 32 Noroeste 0 -- -- 63
2021-02-22 15:00:00 8.1 15 Noroeste 39 Noroeste 0 -- -- 62
2021-02-22 14:00:00 6.7 23 Noroeste 39 Noroeste 0 -- -- 66
2021-02-22 13:00:00 5.9 20 Noroeste 39 Noroeste 0 -- -- 69
2021-02-22 12:00:00 5.1 22 Oeste 36 Noroeste 0 -- -- 73
2021-02-22 11:00:00 4.8 19 Noroeste 32 Noroeste 0 -- -- 71
2021-02-22 10:00:00 4.9 18 Noroeste 31 Oeste 0 -- -- 71
2021-02-22 09:00:00 3.6 15 Noroeste 27 Oeste 0 -- -- 76
2021-02-22 08:00:00 3.7 14 Noroeste 26 Noroeste 0 -- -- 78
2021-02-22 07:00:00 3.9 9 Noroeste 22 Norte 0 -- -- 78
2021-02-22 06:00:00 4.2 6 Noroeste 38 Norte 0 -- -- 75
2021-02-22 05:00:00 3.7 23 Noroeste 50 Noroeste 0 -- -- 82
2021-02-22 04:00:00 4.1 19 Noroeste 51 Noroeste 0.2 -- -- 79
2021-02-22 03:00:00 4.3 23 Noroeste 53 Noroeste 0 -- -- 78
2021-02-22 02:00:00 4.3 25 Noroeste 49 Sudoeste 0 -- -- 78
2021-02-22 01:00:00 4.5 23 Noroeste 64 Noroeste 0 -- -- 76
2021-02-22 00:00:00 4.1 25 Noroeste 51 Noroeste 0 -- -- 78
2021-02-21 23:00:00 4.2 22 Noroeste 59 Norte 0.4 -- -- 80
2021-02-21 22:00:00 3.3 20 Noroeste 37 Noroeste 1.4 -- -- 87
2021-02-21 21:00:00 3.3 14 Noroeste 37 Oeste 4.4 -- -- 90
2021-02-21 20:00:00 3.8 19 Noroeste 31 Noroeste 11.2 -- -- 96
2021-02-21 19:00:00 6.4 9 Oeste 14 Oeste 7.8 -- -- 96
2021-02-21 18:00:00 7.6 4 Este 15 Este 0.6 -- -- 93
2021-02-21 17:00:00 7.7 8 Este 22 Este 0.4 -- -- 92
2021-02-21 16:00:00 7.5 9 Este 18 Sudeste 0.8 -- -- 92
2021-02-21 15:00:00 7.5 9 Sudeste 22 Sudeste 0.2 -- -- 89
2021-02-21 14:00:00 7.6 14 Sudeste 32 Este 0 -- -- 85
2021-02-21 13:00:00 8.3 13 Sudeste 27 Sudeste 0 -- -- 78
2021-02-21 12:00:00 8.5 9 Sudeste 17 Sudeste 0 -- -- 74
2021-02-21 11:00:00 7.9 7 Este 15 Este 0 -- -- 75
2021-02-21 10:00:00 7.5 5 Este 10 Este 0 -- -- 75
2021-02-21 09:00:00 6.7 5 Sudeste 8 Este 0 -- -- 78
2021-02-21 08:00:00 6.4 0 Calma 5 Este 0 -- -- 80
2021-02-21 07:00:00 6.6 3 Este 12 Sudeste 0 -- -- 79
2021-02-21 06:00:00 7 6 Este 18 Este 0 -- -- 79
2021-02-21 05:00:00 7.2 10 Este 28 Sudeste 0 -- -- 79
2021-02-21 04:00:00 7.4 7 Sudeste 24 Sudeste 0 -- -- 81
2021-02-21 03:00:00 7.7 10 Sudeste 23 Sudeste 0 -- -- 80
2021-02-21 02:00:00 8.2 12 Sudeste 19 Sudeste 0 -- -- 77
2021-02-21 01:00:00 9 12 Sudeste 23 Sudeste 0 -- -- 67
2021-02-21 00:00:00 10.4 12 Sudeste 25 Sudeste 0 -- -- 52
2021-02-20 23:00:00 10.1 5 Sur 19 Sudeste 0 -- -- 43
2021-02-20 22:00:00 11.2 10 Este 18 Este 0 -- -- 39
2021-02-20 21:00:00 10.7 9 Sudeste 14 Este 0 -- -- 40
2021-02-20 20:00:00 11.6 6 Sudeste 21 Sur 0 -- -- 37
2021-02-20 19:00:00 12.7 7 Sudeste 21 Sur 0 -- -- 42
2021-02-20 18:00:00 14.6 11 Sur 28 Sudeste 0 -- -- 35
2021-02-20 17:00:00 15.4 14 Sur 32 Sur 0 -- -- 35
2021-02-20 16:00:00 15.1 12 Sur 32 Sudeste 0 -- -- 36
2021-02-20 15:00:00 15.1 10 Sur 29 Sur 0 -- -- 40
2021-02-20 14:00:00 14.3 10 Sur 32 Sur 0 -- -- 40
2021-02-20 13:00:00 15.3 8 Sur 28 Sur 0 -- -- 41
2021-02-20 12:00:00 14.1 5 Sudeste 13 Este 0 -- -- 48
2021-02-20 11:00:00 10.8 0 Calma 9 Sur 0 -- -- 59
2021-02-20 10:00:00 8.5 0 Calma 8 Sudeste 0 -- -- 65
2021-02-20 09:00:00 6.2 0 Calma 5 Noroeste 0 -- -- 72
2021-02-20 08:00:00 4.8 0 Calma 15 Este 0 -- -- 78
2021-02-20 07:00:00 7.7 5 Sudeste 12 Sudeste 0 -- -- 65
2021-02-20 06:00:00 7 6 Sudeste 13 Este 0 -- -- 68
2021-02-20 05:00:00 8.1 4 Sudeste 14 Este 0 -- -- 60
2021-02-20 04:00:00 8.3 5 Sudeste 15 Este 0 -- -- 60
2021-02-20 03:00:00 9.1 8 Sudeste 15 Este 0 -- -- 60
2021-02-20 02:00:00 8.8 2 Este 9 Este 0 -- -- 63
2021-02-20 01:00:00 10.4 8 Este 17 Este 0 -- -- 57
2021-02-20 00:00:00 10.4 7 Este 14 Sudeste 0 -- -- 58
2021-02-19 23:00:00 9.9 5 Este 8 Este 0 -- -- 58
2021-02-19 22:00:00 10.8 5 Este 14 Este 0 -- -- 55
2021-02-19 21:00:00 11.3 6 Este 10 Este 0 -- -- 53
2021-02-19 20:00:00 11.5 5 Este 10 Este 0 -- -- 52
2021-02-19 19:00:00 12.3 4 Sudeste 10 Sur 0 -- -- 48
2021-02-19 18:00:00 14 4 Sur 21 Sur 0 -- -- 42
2021-02-19 17:00:00 14.6 9 Sur 26 Sur 0 -- -- 40
2021-02-19 16:00:00 15.8 8 Sur 26 Sur 0 -- -- 40
2021-02-19 15:00:00 15.5 8 Sur 23 Sur 0 -- -- 40
2021-02-19 14:00:00 15 8 Sur 18 Sur 0 -- -- 44
2021-02-19 13:00:00 14.9 5 Sudeste 16 Sur 0 -- -- 48
2021-02-19 12:00:00 13.8 4 Sudeste 13 Sudeste 0 -- -- 52
2021-02-19 11:00:00 13.6 3 Sur 8 Sur 0 -- -- 51
2021-02-19 10:00:00 10.6 0 Calma 4 Sudoeste 0 -- -- 67
2021-02-19 09:00:00 4.8 0 Calma 4 Norte 0 -- -- 86
2021-02-19 08:00:00 2.1 0 Calma 5 Norte 0 -- -- 92
2021-02-19 07:00:00 2.5 0 Calma 5 Norte 0 -- -- 90
2021-02-19 06:00:00 2.8 2 Norte 5 Norte 0 -- -- 89
2021-02-19 05:00:00 3.4 0 Calma 7 Noroeste 0 -- -- 88
2021-02-19 04:00:00 2.9 0 Calma 11 Sur 0 -- -- 88
2021-02-19 03:00:00 3.7 0 Calma 8 Norte 0 -- -- 83
2021-02-19 02:00:00 3.8 0 Calma 6 Sudoeste 0 -- -- 81
2021-02-19 01:00:00 4.5 0 Calma 9 Noroeste 0 -- -- 79
2021-02-19 00:00:00 4.5 0 Calma 10 Sudoeste 0 -- -- 75
2021-02-18 23:00:00 5.2 0 Calma 6 Norte 0 -- -- 72
2021-02-18 22:00:00 6.4 0 Calma 9 Noroeste 0 -- -- 65
2021-02-18 21:00:00 8.3 0 Calma 6 Noroeste 0 -- -- 55
2021-02-18 20:00:00 9.6 0 Calma 13 Sur 0 -- -- 53
2021-02-18 19:00:00 10.7 5 Sudoeste 18 Sudoeste 0 -- -- 48
2021-02-18 18:00:00 13.2 9 Sudoeste 27 Sudoeste 0 -- -- 43
2021-02-18 17:00:00 14.5 11 Sudoeste 32 Sudoeste 0 -- -- 42
2021-02-18 16:00:00 14.9 12 Sudoeste 31 Sur 0 -- -- 41
2021-02-18 15:00:00 15.3 8 Sur 23 Sur 0 -- -- 48
2021-02-18 14:00:00 14.2 11 Sur 23 Sudoeste 0 -- -- 56
2021-02-18 13:00:00 13 5 Sur 15 Sur 0 -- -- 57
2021-02-18 12:00:00 11.2 0 Calma 6 Oeste 0 -- -- 71
2021-02-18 11:00:00 7.7 2 Noroeste 6 Noroeste 0 -- -- 88
2021-02-18 10:00:00 6.1 2 Noroeste 7 Norte 0 -- -- 91
2021-02-18 09:00:00 4.8 0 Calma 6 Sudeste 0 -- -- 92
2021-02-18 08:00:00 3.4 5 Sudeste 8 Este 0 -- -- 92
2021-02-18 07:00:00 3.7 0 Calma 6 Sudoeste 0 -- -- 94
2021-02-18 06:00:00 4.9 0 Calma 5 Oeste 0 -- -- 94
2021-02-18 05:00:00 4.6 0 Calma 5 Norte 0 -- -- 91
2021-02-18 04:00:00 4.6 3 Noroeste 6 Noroeste 0 -- -- 90
2021-02-18 03:00:00 4.7 0 Calma 5 Norte 0 -- -- 90
2021-02-18 02:00:00 5.1 0 Calma 4 Sudoeste 0 -- -- 91
2021-02-18 01:00:00 5.6 4 Norte 8 Norte 0 -- -- 91
2021-02-18 00:00:00 6.1 0 Calma 6 Norte 0 -- -- 91
2021-02-17 23:00:00 6.4 2 Sudeste 8 Norte 0 -- -- 90
2021-02-17 22:00:00 7 0 Calma 8 Noroeste 0 -- -- 89
2021-02-17 21:00:00 7.6 3 Noroeste 6 Noroeste 0 -- -- 86
2021-02-17 20:00:00 9 3 Norte 5 Norte 0 -- -- 82
2021-02-17 19:00:00 11.6 0 Calma 8 Sur 0 -- -- 71
2021-02-17 18:00:00 13.2 3 Sur 13 Sur 0 -- -- 67
2021-02-17 17:00:00 13.7 6 Sudeste 14 Sur 0 -- -- 65
2021-02-17 16:00:00 15.6 7 Sur 18 Sur 0 -- -- 59
2021-02-17 15:00:00 15.8 4 Este 14 Sur 0 -- -- 57
2021-02-17 14:00:00 13.6 5 Sur 13 Este 0 -- -- 65
2021-02-17 13:00:00 13.9 3 Oeste 10 Sur 0 -- -- 65
2021-02-17 12:00:00 13.1 5 Sur 12 Sudoeste 0 -- -- 66
2021-02-17 11:00:00 11.6 2 Sur 6 Sudeste 0 -- -- 69
2021-02-17 10:00:00 8.7 0 Calma 3 Oeste 0 -- -- 78
2021-02-17 09:00:00 6.5 0 Calma 5 Norte 0 -- -- 89
2021-02-17 08:00:00 5 0 Calma 6 Noroeste 0 -- -- 93
2021-02-17 07:00:00 4.9 4 Noroeste 7 Noroeste 0 -- -- 93
2021-02-17 06:00:00 5.7 0 Calma 4 Sudoeste 0 -- -- 91
2021-02-17 05:00:00 6 0 Calma 5 Norte 0 -- -- 90
2021-02-17 04:00:00 6.2 3 Norte 8 Sudeste 0 -- -- 90
2021-02-17 03:00:00 7 0 Calma 5 Sudeste 0 -- -- 86
2021-02-17 02:00:00 7.1 0 Calma 8 Noroeste 0 -- -- 84
2021-02-17 01:00:00 8.5 5 Oeste 10 Oeste 0 -- -- 77
2021-02-17 00:00:00 8.1 0 Calma 8 Este 0 -- -- 80
2021-02-16 23:00:00 7.6 4 Este 5 Este 0 -- -- 83
2021-02-16 22:00:00 7.5 3 Nordeste 7 Noroeste 0 -- -- 84
2021-02-16 21:00:00 8.7 0 Calma 4 Este 0 -- -- 83
2021-02-16 20:00:00 9.5 0 Calma 5 Sudeste 0 -- -- 82
2021-02-16 19:00:00 10.6 0 Calma 7 Sudoeste 0 -- -- 78
2021-02-16 18:00:00 13.5 2 Sudoeste 12 Sudoeste 0 -- -- 66
2021-02-16 17:00:00 12.8 5 Sudoeste 16 Sur 0 -- -- 67
2021-02-16 16:00:00 13.4 5 Sur 13 Sur 0 -- -- 65
2021-02-16 15:00:00 12.9 6 Sudoeste 18 Sur 0 -- -- 64
2021-02-16 14:00:00 15 4 Sur 12 Sudoeste 0 -- -- 58
2021-02-16 13:00:00 11.9 3 Sur 6 Sudoeste 0 -- -- 68
2021-02-16 12:00:00 10.6 2 Sudoeste 6 Sur 0 -- -- 70
2021-02-16 11:00:00 9.5 0 Calma 5 Oeste 0 -- -- 75
2021-02-16 10:00:00 7.9 0 Calma 3 Noroeste 0 -- -- 82
2021-02-16 09:00:00 3.7 0 Calma 6 Norte 0 -- -- 96
2021-02-16 08:00:00 2.3 0 Calma 4 Norte 0 -- -- 98
2021-02-16 07:00:00 2.5 3 Noroeste 6 Norte 0 -- -- 98
2021-02-16 06:00:00 2.7 2 Noroeste 5 Norte 0 -- -- 97
2021-02-16 05:00:00 3.4 0 Calma 3 Noroeste 0 -- -- 96
2021-02-16 04:00:00 4 0 Calma 4 Nordeste 0 -- -- 96
2021-02-16 03:00:00 4.2 0 Calma 4 Norte 0 -- -- 94
2021-02-16 02:00:00 5.2 0 Calma 4 Noroeste 0 -- -- 93
2021-02-16 01:00:00 7 0 Calma 6 Nordeste 0 -- -- 89
2021-02-16 00:00:00 7.8 0 Calma 6 Sur 0 -- -- 86
2021-02-15 23:00:00 8 0 Calma 3 Norte 0 -- -- 87
2021-02-15 22:00:00 8.5 0 Calma 4 Noroeste 0 -- -- 84
2021-02-15 21:00:00 8.4 2 Noroeste 6 Norte 0 -- -- 84
2021-02-15 20:00:00 8.7 3 Norte 6 Norte 0 -- -- 82
2021-02-15 19:00:00 9.4 4 Norte 7 Norte 0 -- -- 78
2021-02-15 18:00:00 12 2 Sudeste 14 Sudeste 0 -- -- 65
2021-02-15 17:00:00 13.1 5 Sur 14 Sudoeste 0 -- -- 62
2021-02-15 16:00:00 13.3 7 Sur 14 Sur 0 -- -- 61
2021-02-15 15:00:00 13.8 5 Sudoeste 13 Oeste 0 -- -- 60
2021-02-15 14:00:00 12.5 2 Noroeste 10 Este 0 -- -- 63
2021-02-15 13:00:00 10 2 Nordeste 11 Este 0 -- -- 70
2021-02-15 12:00:00 8.8 2 Nordeste 13 Este 0 -- -- 77
2021-02-15 11:00:00 7.1 3 Este 10 Este 0 -- -- 85
2021-02-15 10:00:00 6.6 6 Este 10 Este 0 -- -- 87
2021-02-15 09:00:00 5.7 0 Calma 4 Sudeste 0 -- -- 92
2021-02-15 08:00:00 5.1 0 Calma 4 Norte 0 -- -- 94
2021-02-15 07:00:00 4.3 0 Calma 4 Norte 0 -- -- 94
2021-02-15 06:00:00 4 2 Noroeste 4 Norte 0 -- -- 95
2021-02-15 05:00:00 3 0 Calma 4 Norte 0 -- -- 95
2021-02-15 04:00:00 3.4 0 Calma 4 Noroeste 0 -- -- 93
2021-02-15 03:00:00 3.9 0 Calma 4 Noroeste 0 -- -- 92
2021-02-15 02:00:00 5 2 Este 8 Norte 0 -- -- 90
2021-02-15 01:00:00 5.2 3 Noroeste 13 Sudeste 0 -- -- 90
2021-02-15 00:00:00 5.9 0 Calma 2 Noroeste 0 -- -- 87
2021-02-14 23:00:00 6 0 Calma 3 Noroeste 0 -- -- 88
2021-02-14 22:00:00 6.6 0 Calma 5 Noroeste 0 -- -- 84
2021-02-14 21:00:00 7.6 0 Calma 5 Norte 0 -- -- 81
2021-02-14 20:00:00 8.7 4 Norte 6 Norte 0 -- -- 77
2021-02-14 19:00:00 11 0 Calma 9 Sur 0 -- -- 66
2021-02-14 18:00:00 12.3 4 Sur 13 Sur 0 -- -- 60
2021-02-14 17:00:00 13.5 6 Sur 14 Sudoeste 0 -- -- 56
2021-02-14 16:00:00 14.9 6 Sudeste 17 Sudoeste 0 -- -- 51
2021-02-14 15:00:00 15.5 5 Sudoeste 15 Sudoeste 0 -- -- 51
2021-02-14 14:00:00 14.9 4 Sur 13 Sur 0 -- -- 53
2021-02-14 13:00:00 13.7 6 Sur 17 Sudeste 0 -- -- 56
2021-02-14 12:00:00 13.5 5 Sudeste 14 Sudeste 0 -- -- 60
2021-02-14 11:00:00 14.2 2 Sur 6 Sur 0 -- -- 55
2021-02-14 10:00:00 11.3 0 Calma 4 Norte 0 -- -- 67
2021-02-14 09:00:00 6.1 0 Calma 2 Nordeste 0 -- -- 90
2021-02-14 08:00:00 2.6 0 Calma 5 Norte 0 -- -- 98
2021-02-14 07:00:00 2.7 0 Calma 2 Noroeste 0 -- -- 96
2021-02-14 06:00:00 2.6 0 Calma 4 Este 0 -- -- 96
2021-02-14 05:00:00 2.9 0 Calma 4 Norte 0 -- -- 95
2021-02-14 04:00:00 3.2 2 Oeste 6 Norte 0 -- -- 93
2021-02-14 03:00:00 3.6 0 Calma 8 Noroeste 0 -- -- 91
2021-02-14 02:00:00 4.3 0 Calma 7 Noroeste 0 -- -- 87
2021-02-14 01:00:00 5 3 Norte 5 Norte 0 -- -- 85
2021-02-14 00:00:00 6.8 2 Nordeste 8 Este 0 -- -- 78
2021-02-13 23:00:00 7.9 4 Este 16 Norte 0 -- -- 77
2021-02-13 22:00:00 7.5 3 Sur 8 Noroeste 0 -- -- 81
2021-02-13 21:00:00 9.1 4 Norte 10 Norte 0 -- -- 73
2021-02-13 20:00:00 9.5 4 Norte 9 Norte 0 -- -- 72
2021-02-13 19:00:00 10.8 0 Calma 12 Noroeste 0 -- -- 66
2021-02-13 18:00:00 12 7 Noroeste 25 Noroeste 0 -- -- 59
2021-02-13 17:00:00 13.3 15 Noroeste 31 Noroeste 0 -- -- 54
2021-02-13 16:00:00 13.2 17 Oeste 33 Oeste 0 -- -- 54
2021-02-13 15:00:00 13 17 Oeste 37 Oeste 0 -- -- 49
2021-02-13 14:00:00 12.3 22 Noroeste 46 Noroeste 0 -- -- 39
2021-02-13 13:00:00 11.3 24 Noroeste 40 Oeste 0 -- -- 37
2021-02-13 08:00:00 -- -- -- -- -- -- -- -- --
2021-02-13 07:00:00 6.6 15 Noroeste 27 Norte 0 -- -- 77
2021-02-13 06:00:00 6.3 8 Noroeste 19 Noroeste 0 -- -- 77
2021-02-13 05:00:00 6.7 5 Norte 19 Oeste 0 -- -- 75
2021-02-13 04:00:00 6.7 4 Norte 14 Norte 0 -- -- 76
2021-02-13 03:00:00 7.2 3 Sudoeste 11 Sur 0 -- -- 78
2021-02-13 02:00:00 7.5 4 Sur 12 Sur 0 -- -- 78
2021-02-13 01:00:00 7.8 4 Oeste 17 Oeste 0 -- -- 76
2021-02-13 00:00:00 8.1 7 Oeste 31 Noroeste 0 -- -- 76
2021-02-12 23:00:00 8.4 11 Noroeste 31 Oeste 0 -- -- 74
2021-02-12 22:00:00 8.3 14 Noroeste 27 Noroeste 0 -- -- 75
2021-02-12 21:00:00 8.6 14 Noroeste 33 Noroeste 0 -- -- 75
2021-02-12 20:00:00 9.3 17 Oeste 30 Oeste 0 -- -- 74
2021-02-12 19:00:00 9.3 13 Oeste 26 Oeste 0 -- -- 73
2021-02-12 18:00:00 9.5 13 Oeste 28 Oeste 0 -- -- 73
2021-02-12 17:00:00 9.8 16 Oeste 30 Oeste 0 -- -- 70
2021-02-12 16:00:00 10 14 Oeste 42 Noroeste 0 -- -- 69
2021-02-12 15:00:00 10 22 Noroeste 44 Noroeste 0 -- -- 69
2021-02-12 14:00:00 9.5 22 Oeste 46 Noroeste 0 -- -- 71
2021-02-12 13:00:00 9.1 23 Noroeste 40 Noroeste 0 -- -- 72
2021-02-12 12:00:00 8.9 21 Noroeste 53 Norte 0 -- -- 73
2021-02-12 11:00:00 9.2 30 Noroeste 57 Oeste 0.2 -- -- 71
2021-02-12 10:00:00 7.5 25 Noroeste 46 Oeste 0.2 -- -- 83
2021-02-12 09:00:00 8 11 Noroeste 39 Noroeste 0 -- -- 80
2021-02-12 08:00:00 8.3 14 Oeste 39 Oeste 0 -- -- 81
2021-02-12 07:00:00 7.7 18 Noroeste 39 Noroeste 3 -- -- 87
2021-02-12 06:00:00 8.5 0 Calma 10 Oeste 0.4 -- -- 99
2021-02-12 05:00:00 8.9 4 Oeste 14 Sudoeste 3.6 -- -- 98
2021-02-12 04:00:00 9 3 Sudoeste 9 Sudeste 0.4 -- -- 97
2021-02-12 03:00:00 8.9 4 Sur 10 Sur 0 -- -- 96
2021-02-12 02:00:00 8.7 5 Sur 14 Sur 0 -- -- 95
2021-02-12 01:00:00 9.2 5 Sur 10 Sur 0 -- -- 96
2021-02-12 00:00:00 9.3 6 Sur 15 Sudoeste 0 -- -- 97
2021-02-11 23:00:00 9.3 3 Sudoeste 8 Sudoeste 0 -- -- 97
2021-02-11 22:00:00 9.9 0 Calma 12 Sudoeste 0 -- -- 96
2021-02-11 21:00:00 10 4 Sur 13 Sudoeste 0 -- -- 95
2021-02-11 20:00:00 10 4 Sur 10 Sur 0 -- -- 95
2021-02-11 19:00:00 10.2 2 Sur 13 Sudeste 0 -- -- 92
2021-02-11 18:00:00 10.7 5 Sur 12 Sur 0 -- -- 89
2021-02-11 17:00:00 11 4 Sur 10 Sudeste 0 -- -- 88
2021-02-11 16:00:00 11.4 2 Sudeste 9 Sudeste 0 -- -- 84
2021-02-11 15:00:00 10.8 4 Sudeste 11 Sudeste 0 -- -- 87
2021-02-11 14:00:00 10.3 5 Sudeste 12 Sur 0 -- -- 90
2021-02-11 13:00:00 10.3 4 Sur 12 Sudeste 0 -- -- 90
2021-02-11 12:00:00 10.2 6 Sudeste 12 Sur 0 -- -- 84
2021-02-11 11:00:00 11.5 4 Sur 11 Sur 0 -- -- 74
2021-02-11 10:00:00 11.4 3 Sur 7 Sudeste 0 -- -- 70
2021-02-11 09:00:00 6 2 Norte 8 Norte 0 -- -- 86
2021-02-11 08:00:00 5.6 2 Norte 6 Norte 0 -- -- 86
2021-02-11 07:00:00 6 0 Calma 7 Oeste 0 -- -- 81
2021-02-11 06:00:00 6.4 2 Noroeste 5 Norte 0 -- -- 82
2021-02-11 05:00:00 6.8 0 Calma 8 Sudoeste 0 -- -- 74
2021-02-11 04:00:00 6.9 3 Oeste 19 Noroeste 0 -- -- 68
2021-02-11 03:00:00 8.5 11 Noroeste 23 Noroeste 0 -- -- 66
2021-02-11 02:00:00 8.3 5 Oeste 18 Noroeste 0 -- -- 61
2021-02-11 01:00:00 8.7 8 Oeste 35 Noroeste 0 -- -- 58
2021-02-11 00:00:00 6.9 4 Oeste 13 Oeste 0 -- -- 62
2021-02-10 23:00:00 6.4 3 Noroeste 9 Norte 0 -- -- 65
2021-02-10 22:00:00 6.3 2 Norte 14 Sur 0 -- -- 64
2021-02-10 21:00:00 7.7 3 Sudoeste 23 Oeste 0 -- -- 56
2021-02-10 20:00:00 8.6 14 Oeste 20 Oeste 0 -- -- 50
2021-02-10 19:00:00 8.9 8 Noroeste 20 Oeste 0 -- -- 51
2021-02-10 18:00:00 10.8 14 Noroeste 24 Noroeste 0 -- -- 47
2021-02-10 17:00:00 12 9 Oeste 24 Noroeste 0 -- -- 44
2021-02-10 16:00:00 12 8 Noroeste 42 Noroeste 0 -- -- 48
2021-02-10 15:00:00 10.4 26 Noroeste 49 Noroeste 0 -- -- 50
2021-02-10 14:00:00 9.7 25 Noroeste 43 Noroeste 0 -- -- 56
2021-02-10 13:00:00 8.8 17 Oeste 36 Noroeste 0 -- -- 59
2021-02-10 12:00:00 8.2 17 Noroeste 51 Noroeste 0 -- -- 63
2021-02-10 11:00:00 7.1 25 Noroeste 45 Oeste 0 -- -- 67
2021-02-10 10:00:00 5.7 24 Noroeste 54 Noroeste 0 -- -- 77
2021-02-10 09:00:00 4.9 24 Oeste 52 Noroeste 0.2 -- -- 84
2021-02-10 08:00:00 5.9 33 Noroeste 55 Oeste 0 -- -- 75
2021-02-10 07:00:00 5.6 22 Noroeste 57 Oeste 0.2 -- -- 79
2021-02-10 06:00:00 5.2 16 Oeste 51 Oeste 0.8 -- -- 87
2021-02-10 05:00:00 5 14 Oeste 30 Oeste 1 -- -- 88
2021-02-10 04:00:00 5.2 10 Oeste 24 Oeste 0.4 -- -- 95
2021-02-10 03:00:00 4.9 5 Sudoeste 11 Sur 0 -- -- 98
2021-02-10 02:00:00 4.8 3 Sur 8 Sudeste 0 -- -- 98
2021-02-10 01:00:00 4.1 3 Nordeste 7 Este 0.2 -- -- 98
2021-02-10 00:00:00 4.5 2 Sudoeste 10 Sudeste 0 -- -- 97
2021-02-09 23:00:00 4.2 2 Nordeste 7 Nordeste 0 -- -- 95
2021-02-09 22:00:00 5.8 5 Sudoeste 22 Oeste 0 -- -- 83
2021-02-09 21:00:00 4.7 13 Noroeste 26 Noroeste 0 -- -- 87
2021-02-09 20:00:00 5.6 5 Noroeste 9 Oeste 0.2 -- -- 97
2021-02-09 19:00:00 5.8 4 Sur 15 Sur 0 -- -- 96
2021-02-09 18:00:00 7.1 4 Sudoeste 16 Sudoeste 0 -- -- 86
2021-02-09 17:00:00 7 12 Oeste 28 Oeste 0.2 -- -- 78
2021-02-09 16:00:00 4.5 9 Oeste 36 Noroeste 0.2 -- -- 88
2021-02-09 15:00:00 3.8 19 Noroeste 40 Noroeste 2.4 -- -- 89
2021-02-09 14:00:00 6.5 12 Sudoeste 32 Sur 0.8 -- -- 95
2021-02-09 13:00:00 6.5 14 Sudoeste 37 Sudoeste 0.6 -- -- 95
2021-02-09 12:00:00 6.1 17 Sur 41 Sudoeste 0.4 -- -- 99
2021-02-09 11:00:00 5.5 11 Sur 28 Sudeste 0.4 -- -- 100
2021-02-09 10:00:00 5.2 9 Sur 26 Sur 1.6 -- -- 99
2021-02-09 09:00:00 4.7 4 Sudeste 7 Sudeste 2 -- -- 99
2021-02-09 08:00:00 4.6 4 Sudeste 9 Sudeste 2.4 -- -- 99
2021-02-09 07:00:00 4.4 3 Sudeste 9 Sur 2.2 -- -- 99
2021-02-09 06:00:00 4.1 2 Sudeste 7 Sudoeste 0.6 -- -- 98
2021-02-09 05:00:00 4 3 Sudoeste 15 Sudoeste 0.4 -- -- 97
2021-02-09 04:00:00 4.2 3 Sur 14 Norte 0.4 -- -- 94
2021-02-09 03:00:00 4 4 Sudeste 19 Noroeste 1 -- -- 93
2021-02-09 02:00:00 4.8 11 Oeste 19 Oeste 0.4 -- -- 84
2021-02-09 01:00:00 6.3 3 Oeste 15 Nordeste 0 -- -- 74
2021-02-09 00:00:00 6.4 6 Oeste 31 Oeste 0 -- -- 75
2021-02-08 23:00:00 6.5 15 Noroeste 25 Noroeste 0 -- -- 75
2021-02-08 22:00:00 6.9 8 Oeste 36 Oeste 0 -- -- 74
2021-02-08 21:00:00 6.8 19 Oeste 38 Noroeste 0 -- -- 78
2021-02-08 20:00:00 7 22 Oeste 42 Oeste 0.2 -- -- 76
2021-02-08 19:00:00 5.6 9 Oeste 35 Oeste 0.6 -- -- 87
2021-02-08 18:00:00 6.6 8 Noroeste 38 Oeste 0.4 -- -- 82
2021-02-08 17:00:00 6.6 7 Noroeste 29 Oeste 0.4 -- -- 83
2021-02-08 16:00:00 7.5 14 Oeste 33 Oeste 0.2 -- -- 73
2021-02-08 15:00:00 9 17 Oeste 35 Noroeste 0 -- -- 61
2021-02-08 14:00:00 8.2 22 Oeste 33 Oeste 0 -- -- 61
2021-02-08 13:00:00 6.4 9 Oeste 31 Noroeste 0 -- -- 79
2021-02-08 12:00:00 7.3 4 Oeste 14 Oeste 0 -- -- 76
2021-02-08 11:00:00 5.7 5 Sudoeste 14 Sur 0 -- -- 86
2021-02-08 10:00:00 5.8 3 Oeste 26 Oeste 0 -- -- 82
2021-02-08 09:00:00 5.7 12 Oeste 23 Oeste 0 -- -- 76
2021-02-08 08:00:00 4.5 3 Oeste 15 Oeste 0 -- -- 94
2021-02-08 07:00:00 3.9 3 Oeste 7 Norte 0.8 -- -- 99
2021-02-08 06:00:00 4.1 3 Oeste 6 Oeste 2 -- -- 99
2021-02-08 05:00:00 4.1 2 Sur 12 Sur 2.8 -- -- 99
2021-02-08 04:00:00 4.3 5 Sur 12 Sur 2.4 -- -- 99
2021-02-08 03:00:00 4.3 5 Sur 15 Sur 0.4 -- -- 99
2021-02-08 02:00:00 4.1 3 Sudoeste 8 Sur 0 -- -- 99
2021-02-08 01:00:00 3.9 3 Sudoeste 10 Sur 0 -- -- 99
2021-02-08 00:00:00 3.7 5 Sur 11 Sur 0 -- -- 99
2021-02-07 23:00:00 3.8 4 Sudeste 16 Sudeste 0 -- -- 98
2021-02-07 22:00:00 4.6 3 Sudeste 6 Sudeste 0 -- -- 95
2021-02-07 21:00:00 4.7 3 Oeste 12 Noroeste 0.4 -- -- 90
2021-02-07 20:00:00 4.4 6 Noroeste 21 Noroeste 0.6 -- -- 88
2021-02-07 19:00:00 5.1 5 Oeste 12 Noroeste 0.2 -- -- 82
2021-02-07 18:00:00 5.3 6 Noroeste 28 Oeste 0 -- -- 76
2021-02-07 17:00:00 7.9 13 Oeste 32 Sudoeste 0 -- -- 57
2021-02-07 16:00:00 8.3 13 Oeste 33 Noroeste 0 -- -- 57
2021-02-07 15:00:00 9.3 12 Oeste 27 Noroeste 0 -- -- 56
2021-02-07 14:00:00 8.1 21 Oeste 37 Noroeste 0 -- -- 58
2021-02-07 13:00:00 7.4 20 Oeste 36 Noroeste 0 -- -- 59
2021-02-07 12:00:00 7.4 15 Oeste 32 Oeste 0 -- -- 55
2021-02-07 11:00:00 7.3 11 Noroeste 26 Oeste 0 -- -- 53
2021-02-07 10:00:00 5.7 9 Noroeste 19 Noroeste 0 -- -- 62
2021-02-07 09:00:00 3.3 6 Oeste 16 Noroeste 0 -- -- 78
2021-02-07 08:00:00 2.7 13 Noroeste 24 Oeste 0 -- -- 80
2021-02-07 07:00:00 2.2 7 Norte 19 Noroeste 0 -- -- 85
2021-02-07 06:00:00 2.9 12 Noroeste 21 Noroeste 0 -- -- 80
2021-02-07 05:00:00 3.7 9 Oeste 21 Oeste 0 -- -- 75
2021-02-07 04:00:00 4.1 9 Noroeste 29 Noroeste 0 -- -- 77
2021-02-07 03:00:00 4.1 12 Noroeste 22 Oeste 0 -- -- 84
2021-02-07 02:00:00 4.3 5 Noroeste 15 Noroeste 0 -- -- 86
2021-02-07 01:00:00 4.9 0 Calma 20 Noroeste 0 -- -- 87
2021-02-07 00:00:00 5 13 Noroeste 24 Noroeste 0 -- -- 85
2021-02-06 23:00:00 4.9 15 Noroeste 29 Noroeste 0 -- -- 88
2021-02-06 22:00:00 5.5 7 Noroeste 20 Noroeste 0 -- -- 86
2021-02-06 21:00:00 6 8 Noroeste 19 Oeste 0 -- -- 86
2021-02-06 20:00:00 6 4 Noroeste 9 Noroeste 0 -- -- 89
2021-02-06 19:00:00 6.8 3 Noroeste 6 Este 0 -- -- 94
2021-02-06 18:00:00 7.7 4 Oeste 15 Oeste 0 -- -- 87
2021-02-06 17:00:00 7.5 0 Calma 8 Noroeste 0.4 -- -- 91
2021-02-06 16:00:00 6.5 6 Noroeste 23 Oeste 5.8 -- -- 94
2021-02-06 15:00:00 10.6 3 Sudoeste 12 Oeste 0 -- -- 75
2021-02-06 14:00:00 10 4 Sudoeste 13 Sudoeste 0 -- -- 82
2021-02-06 13:00:00 8.4 4 Sudoeste 13 Sur 0.2 -- -- 91
2021-02-06 12:00:00 6.9 4 Sur 12 Sur 1.2 -- -- 96
2021-02-06 11:00:00 8 5 Sur 13 Sur 0 -- -- 91
2021-02-06 10:00:00 6.8 4 Sur 13 Sudeste 0.2 -- -- 97
2021-02-06 09:00:00 6.1 2 Sur 10 Sur 1.8 -- -- 99
2021-02-06 08:00:00 6.2 6 Sur 12 Sudeste 0 -- -- 99
2021-02-06 07:00:00 6.3 4 Sudeste 13 Sur 0 -- -- 99
2021-02-06 06:00:00 6.3 6 Sur 17 Sur 0.4 -- -- 99
2021-02-06 05:00:00 6.5 8 Sudeste 23 Sudeste 2.4 -- -- 98
2021-02-06 04:00:00 7.1 6 Sur 13 Sur 1.2 -- -- 98
2021-02-06 03:00:00 7.3 3 Sudeste 7 Sudeste 0 -- -- 97
2021-02-06 02:00:00 7.3 3 Sudeste 10 Sudeste 0.4 -- -- 97
2021-02-06 01:00:00 7.4 5 Este 11 Sudeste 0 -- -- 94
2021-02-06 00:00:00 7.3 4 Sudeste 12 Este 0 -- -- 96
2021-02-05 23:00:00 7.3 4 Este 29 Sudeste 2.4 -- -- 97
2021-02-05 22:00:00 8.8 16 Sudeste 46 Sudeste 7 -- -- 94
2021-02-05 21:00:00 10.9 14 Sudeste 24 Este 0.2 -- -- 81
2021-02-05 20:00:00 10.8 5 Este 17 Este 0 -- -- 75
2021-02-05 19:00:00 11.9 5 Este 16 Sudeste 0 -- -- 70
2021-02-05 18:00:00 13.1 7 Este 20 Nordeste 0 -- -- 65
2021-02-05 17:00:00 14.2 9 Este 23 Este 0 -- -- 58
2021-02-05 16:00:00 14.4 10 Este 23 Este 0 -- -- 58
2021-02-05 15:00:00 14.3 12 Este 24 Este 0 -- -- 57
2021-02-05 14:00:00 14.2 13 Este 22 Este 0 -- -- 55
2021-02-05 13:00:00 13.9 12 Este 23 Este 0 -- -- 56
2021-02-05 12:00:00 14 9 Este 18 Este 0 -- -- 58
2021-02-05 11:00:00 13.2 11 Este 21 Este 0 -- -- 63
2021-02-05 10:00:00 10.5 3 Nordeste 10 Oeste 0 -- -- 72
2021-02-05 09:00:00 6.3 3 Noroeste 9 Este 0 -- -- 90
2021-02-05 08:00:00 7 0 Calma 10 Norte 0 -- -- 86
2021-02-05 07:00:00 6.2 4 Norte 9 Nordeste 0 -- -- 94
2021-02-05 06:00:00 5.8 3 Norte 8 Nordeste 0 -- -- 95
2021-02-05 05:00:00 6.8 3 Norte 10 Nordeste 0.2 -- -- 95
2021-02-05 04:00:00 7.4 5 Oeste 10 Oeste 0 -- -- 96
2021-02-05 03:00:00 7.5 2 Noroeste 7 Este 0 -- -- 94
2021-02-05 02:00:00 7.6 3 Noroeste 11 Noroeste 0 -- -- 95
2021-02-05 01:00:00 8.3 8 Noroeste 24 Este 1.2 -- -- 90
2021-02-05 00:00:00 8.9 6 Este 16 Sudeste 0 -- -- 83
2021-02-04 23:00:00 8.8 3 Sudeste 15 Este 0 -- -- 84
2021-02-04 22:00:00 9 9 Este 16 Este 0 -- -- 84
2021-02-04 21:00:00 9.3 7 Sudeste 14 Este 0 -- -- 83
2021-02-04 20:00:00 9.2 5 Este 9 Este 0 -- -- 85
2021-02-04 19:00:00 9.2 4 Sur 11 Sur 0 -- -- 85
2021-02-04 18:00:00 9.7 5 Sudeste 15 Este 0 -- -- 84
2021-02-04 17:00:00 9.4 9 Sudeste 18 Sudeste 0.2 -- -- 85
2021-02-04 16:00:00 10.1 7 Sur 19 Sur 0 -- -- 81
2021-02-04 15:00:00 9.7 9 Sur 21 Sudeste 0 -- -- 87
2021-02-04 14:00:00 10.5 8 Sudeste 19 Sudeste 0 -- -- 80
2021-02-04 13:00:00 10.8 9 Sudeste 26 Sudeste 0 -- -- 80
2021-02-04 12:00:00 8.7 7 Sudeste 18 Este 0 -- -- 98
2021-02-04 11:00:00 8.4 6 Este 18 Sudeste 0 -- -- 100
2021-02-04 10:00:00 7.8 3 Sur 6 Este 0 -- -- 100
2021-02-04 09:00:00 7.3 0 Calma 3 Sudeste 0 -- -- 100
2021-02-04 08:00:00 7.2 2 Sur 8 Sudeste 0 -- -- 100
2021-02-04 07:00:00 7.2 4 Sur 9 Sur 0 -- -- 100
2021-02-04 06:00:00 7.5 3 Sur 6 Sur 0 -- -- 100
2021-02-04 05:00:00 7.6 4 Sudeste 8 Sudeste 0 -- -- 100
2021-02-04 04:00:00 8 0 Calma 7 Sur 0 -- -- 100
2021-02-04 03:00:00 8.3 3 Sudeste 10 Sur 0 -- -- 100
2021-02-04 02:00:00 8.5 3 Sudoeste 13 Sur 0 -- -- 100
2021-02-04 01:00:00 8.7 4 Sur 11 Sur 0.2 -- -- 100
2021-02-04 00:00:00 8.7 4 Sur 10 Este 1 -- -- 100